Price, UT

7:00 PM MDT on July 25, 2016 (GMT -0600)
Castle Heights | | Change Station

Elev 5843 ft 39.23 °N, 111.02 °W | Updated 13 minutes ago

Clear
Clear
87.6 °F
Feels Like 84 °F
N
2.0
Wind Variable Wind from WNW
Gusts 6.0 mph

Today
High -- | Low -- °F
--% Chance of Precip.
Yesterday
High -- | Low -- °F
Precip. -- in
Pressure 29.88 in
Visibility 10.0 miles
Clouds Clear
Heat Index 84 °F
Dew Point 41 °F
Humidity 19%
Rainfall 0.04 in
Snow Depth Not available.
6:18 AM 8:42 PM
Waning Gibbous, 60% visible
METAR KPUC 260053Z AUTO 04012KT 10SM CLR 31/01 A3018 RMK AO2 SLP118 T03060011
Pressure 29.88 in
Visibility 10.0 miles
Clouds Clear
Heat Index 84 °F
Dew Point 41 °F
Humidity 19%
Rainfall 0.04 in
Snow Depth Not available.
6:18 AM 8:42 PM
Waning Gibbous, 60% visible
METAR KPUC 260053Z AUTO 04012KT 10SM CLR 31/01 A3018 RMK AO2 SLP118 T03060011

10-Day Weather Forecast

Almanac

Astronomy

Jul. 25, 2016 Rise Set
Actual Time
Civil Twilight
Nautical Twilight
Astronomical Twilight
Moon
Length of Visible Light
Length of Day
Tomorrow will be .
, % of the Moon is Illuminated

Today's Extremes

State Highs State Lows

Community

WunderPhotos

Upload Photos

1,927,479 photos uploaded!

WunderBlog® & News

Nearby

Air Quality

  Air Quality AQ Index Pollutant
Not available.

Snow Depth

Station Depth Elevation

Earthquake Activity

City Distance Mag. Time & Date
Minimum magnitude displayed is 2.5.

Coastal Water Temperatures

Place Temperature

Stations

Nearby Weather Stations

Station Location Temp. Windchill Dew Point Humidity Wind Precip. Elev Updated Type
                   

Watches & Warnings

There are currently no watches in effect.